sensor_id;sensor_type;location;lat;lon;timestamp;temperature;humidity
6244;DHT22;3155;49.940;8.450;2023-03-17T03:20:35;4.70;99.90
6244;DHT22;3155;49.940;8.450;2023-03-17T03:23:02;2.00;99.90
6244;DHT22;3155;49.940;8.450;2023-03-17T03:25:32;1.90;99.90
6244;DHT22;3155;49.940;8.450;2023-03-17T03:28:01;1.80;99.90
6244;DHT22;3155;49.940;8.450;2023-03-17T03:30:27;1.70;99.90
6244;DHT22;3155;49.940;8.450;2023-03-17T03:33:00;1.50;99.90
6244;DHT22;3155;49.940;8.450;2023-03-17T03:35:28;1.50;99.90
6244;DHT22;3155;49.940;8.450;2023-03-17T03:37:55;1.50;99.90
6244;DHT22;3155;49.940;8.450;2023-03-17T03:40:23;1.50;99.90
6244;DHT22;3155;49.940;8.450;2023-03-17T03:42:51;1.50;99.90
6244;DHT22;3155;49.940;8.450;2023-03-17T03:45:18;1.50;99.90
6244;DHT22;3155;49.940;8.450;2023-03-17T03:47:44;1.50;99.90
6244;DHT22;3155;49.940;8.450;2023-03-17T03:50:11;1.40;99.90
6244;DHT22;3155;49.940;8.450;2023-03-17T03:52:39;1.40;99.90
6244;DHT22;3155;49.940;8.450;2023-03-17T03:55:06;1.30;99.90
6244;DHT22;3155;49.940;8.450;2023-03-17T03:57:34;1.30;99.90
6244;DHT22;3155;49.940;8.450;2023-03-17T04:00:02;1.20;99.90
6244;DHT22;3155;49.940;8.450;2023-03-17T04:02:28;1.10;99.90
6244;DHT22;3155;49.940;8.450;2023-03-17T04:04:56;1.20;99.90
6244;DHT22;3155;49.940;8.450;2023-03-17T04:07:23;1.20;99.90
6244;DHT22;3155;49.940;8.450;2023-03-17T04:09:50;1.10;99.90
6244;DHT22;3155;49.940;8.450;2023-03-17T04:12:17;0.90;99.90
6244;DHT22;3155;49.940;8.450;2023-03-17T04:14:44;0.90;99.90
6244;DHT22;3155;49.940;8.450;2023-03-17T04:17:11;1.00;99.90
6244;DHT22;3155;49.940;8.450;2023-03-17T04:19:38;1.10;99.90
6244;DHT22;3155;49.940;8.450;2023-03-17T04:22:06;1.10;99.90
6244;DHT22;3155;49.940;8.450;2023-03-17T04:24:34;1.00;99.90
6244;DHT22;3155;49.940;8.450;2023-03-17T04:27:01;0.80;99.90
6244;DHT22;3155;49.940;8.450;2023-03-17T04:29:31;0.70;99.90
6244;DHT22;3155;49.940;8.450;2023-03-17T04:31:58;0.70;99.90
6244;DHT22;3155;49.940;8.450;2023-03-17T04:34:25;0.70;99.90
6244;DHT22;3155;49.940;8.450;2023-03-17T04:36:52;0.70;99.90
6244;DHT22;3155;49.940;8.450;2023-03-17T04:39:19;0.80;99.90
6244;DHT22;3155;49.940;8.450;2023-03-17T04:41:46;0.90;99.90
6244;DHT22;3155;49.940;8.450;2023-03-17T04:44:13;1.00;99.90
6244;DHT22;3155;49.940;8.450;2023-03-17T04:46:39;1.00;99.90
6244;DHT22;3155;49.940;8.450;2023-03-17T04:49:06;1.10;99.90
6244;DHT22;3155;49.940;8.450;2023-03-17T04:51:34;1.00;99.90
6244;DHT22;3155;49.940;8.450;2023-03-17T04:54:02;1.00;99.90
6244;DHT22;3155;49.940;8.450;2023-03-17T04:56:30;1.10;99.90
6244;DHT22;3155;49.940;8.450;2023-03-17T04:58:57;1.10;99.90
6244;DHT22;3155;49.940;8.450;2023-03-17T05:01:24;1.10;99.90
6244;DHT22;3155;49.940;8.450;2023-03-17T05:03:52;1.10;99.90
6244;DHT22;3155;49.940;8.450;2023-03-17T05:06:19;1.10;99.90
6244;DHT22;3155;49.940;8.450;2023-03-17T05:08:45;1.00;99.90
6244;DHT22;3155;49.940;8.450;2023-03-17T05:11:18;0.90;99.90
6244;DHT22;3155;49.940;8.450;2023-03-17T05:13:44;0.80;99.90
6244;DHT22;3155;49.940;8.450;2023-03-17T05:16:11;0.90;99.90
6244;DHT22;3155;49.940;8.450;2023-03-17T05:18:40;0.70;99.90
6244;DHT22;3155;49.940;8.450;2023-03-17T05:21:11;0.60;99.90
6244;DHT22;3155;49.940;8.450;2023-03-17T05:23:38;0.50;99.90
6244;DHT22;3155;49.940;8.450;2023-03-17T05:26:05;0.40;99.90
6244;DHT22;3155;49.940;8.450;2023-03-17T05:28:32;0.20;99.90
6244;DHT22;3155;49.940;8.450;2023-03-17T05:31:02;0.00;99.90
6244;DHT22;3155;49.940;8.450;2023-03-17T05:33:29;-0.20;99.90
6244;DHT22;3155;49.940;8.450;2023-03-17T05:35:56;-0.40;99.90
6244;DHT22;3155;49.940;8.450;2023-03-17T05:38:23;-0.60;99.90
6244;DHT22;3155;49.940;8.450;2023-03-17T05:40:53;-0.70;99.90
6244;DHT22;3155;49.940;8.450;2023-03-17T05:43:20;-0.70;99.90
6244;DHT22;3155;49.940;8.450;2023-03-17T05:45:47;-0.80;99.90
6244;DHT22;3155;49.940;8.450;2023-03-17T05:48:16;-0.80;99.90
6244;DHT22;3155;49.940;8.450;2023-03-17T05:50:43;-0.60;99.90
6244;DHT22;3155;49.940;8.450;2023-03-17T05:53:09;-0.50;99.90
6244;DHT22;3155;49.940;8.450;2023-03-17T05:55:36;-0.40;99.90
6244;DHT22;3155;49.940;8.450;2023-03-17T05:58:03;-0.30;99.90
6244;DHT22;3155;49.940;8.450;2023-03-17T06:00:31;-0.30;99.90
6244;DHT22;3155;49.940;8.450;2023-03-17T06:02:58;-0.40;99.90
6244;DHT22;3155;49.940;8.450;2023-03-17T06:05:25;-0.40;99.90
6244;DHT22;3155;49.940;8.450;2023-03-17T06:07:52;-0.30;99.90
6244;DHT22;3155;49.940;8.450;2023-03-17T06:10:23;-0.20;99.90
6244;DHT22;3155;49.940;8.450;2023-03-17T06:12:50;-0.10;99.90
6244;DHT22;3155;49.940;8.450;2023-03-17T06:15:18;0.10;99.90
6244;DHT22;3155;49.940;8.450;2023-03-17T06:17:45;0.30;99.90
6244;DHT22;3155;49.940;8.450;2023-03-17T06:20:15;0.50;99.90
6244;DHT22;3155;49.940;8.450;2023-03-17T06:22:42;0.80;99.90
6244;DHT22;3155;49.940;8.450;2023-03-17T06:25:28;0.90;1.00
6244;DHT22;3155;49.940;8.450;2023-03-17T06:27:55;1.10;1.00
6244;DHT22;3155;49.940;8.450;2023-03-17T06:30:26;1.30;99.90
6244;DHT22;3155;49.940;8.450;2023-03-17T06:32:53;1.50;99.90
6244;DHT22;3155;49.940;8.450;2023-03-17T06:35:20;2.00;1.00
6244;DHT22;3155;49.940;8.450;2023-03-17T06:37:48;2.70;1.00
6244;DHT22;3155;49.940;8.450;2023-03-17T06:40:18;3.50;99.90
6244;DHT22;3155;49.940;8.450;2023-03-17T06:47:42;4.50;1.00
6244;DHT22;3155;49.940;8.450;2023-03-17T06:50:10;6.60;99.90
6244;DHT22;3155;49.940;8.450;2023-03-17T06:52:38;7.20;99.90
6244;DHT22;3155;49.940;8.450;2023-03-17T06:55:06;7.80;99.90
6244;DHT22;3155;49.940;8.450;2023-03-17T06:57:34;8.00;99.90
6244;DHT22;3155;49.940;8.450;2023-03-17T07:00:00;8.30;99.90
6244;DHT22;3155;49.940;8.450;2023-03-17T07:02:36;8.60;99.90
6244;DHT22;3155;49.940;8.450;2023-03-17T07:05:03;9.00;99.90
6244;DHT22;3155;49.940;8.450;2023-03-17T07:07:30;9.30;99.90
6244;DHT22;3155;49.940;8.450;2023-03-17T07:09:57;9.60;99.90
6244;DHT22;3155;49.940;8.450;2023-03-17T07:12:24;10.00;99.90
6244;DHT22;3155;49.940;8.450;2023-03-17T07:14:51;10.10;99.90
6244;DHT22;3155;49.940;8.450;2023-03-17T07:17:18;10.10;99.90
6244;DHT22;3155;49.940;8.450;2023-03-17T07:22:12;10.20;99.90
6244;DHT22;3155;49.940;8.450;2023-03-17T07:24:39;10.30;99.90
6244;DHT22;3155;49.940;8.450;2023-03-17T07:27:11;10.30;99.90
6244;DHT22;3155;49.940;8.450;2023-03-17T07:29:39;10.30;99.90
6244;DHT22;3155;49.940;8.450;2023-03-17T07:32:07;10.20;99.90
6244;DHT22;3155;49.940;8.450;2023-03-17T07:34:35;10.40;99.90
6244;DHT22;3155;49.940;8.450;2023-03-17T07:37:05;10.00;99.90
6244;DHT22;3155;49.940;8.450;2023-03-17T07:39:35;10.30;99.90
6244;DHT22;3155;49.940;8.450;2023-03-17T07:42:02;10.50;99.90
6244;DHT22;3155;49.940;8.450;2023-03-17T07:44:32;10.70;99.90
6244;DHT22;3155;49.940;8.450;2023-03-17T07:46:59;11.00;99.90
6244;DHT22;3155;49.940;8.450;2023-03-17T07:49:28;11.30;99.90
6244;DHT22;3155;49.940;8.450;2023-03-17T07:52:08;11.50;99.90
6244;DHT22;3155;49.940;8.450;2023-03-17T07:54:35;10.80;99.90
6244;DHT22;3155;49.940;8.450;2023-03-17T07:57:04;10.80;99.90
6244;DHT22;3155;49.940;8.450;2023-03-17T07:59:31;10.40;99.90
6244;DHT22;3155;49.940;8.450;2023-03-17T08:01:57;10.50;99.90
6244;DHT22;3155;49.940;8.450;2023-03-17T08:04:26;11.00;99.90
6244;DHT22;3155;49.940;8.450;2023-03-17T08:06:56;11.60;99.90
6244;DHT22;3155;49.940;8.450;2023-03-17T08:09:23;12.10;99.90
6244;DHT22;3155;49.940;8.450;2023-03-17T08:11:50;12.50;99.90
6244;DHT22;3155;49.940;8.450;2023-03-17T08:14:17;12.80;99.90
6244;DHT22;3155;49.940;8.450;2023-03-17T08:16:43;12.80;99.90
6244;DHT22;3155;49.940;8.450;2023-03-17T08:19:10;12.90;99.90
6244;DHT22;3155;49.940;8.450;2023-03-17T08:21:37;12.60;99.90
6244;DHT22;3155;49.940;8.450;2023-03-17T08:24:04;12.70;99.90
6244;DHT22;3155;49.940;8.450;2023-03-17T08:26:32;12.50;99.90
6244;DHT22;3155;49.940;8.450;2023-03-17T08:28:58;11.80;99.90
6244;DHT22;3155;49.940;8.450;2023-03-17T08:31:26;11.60;99.90
6244;DHT22;3155;49.940;8.450;2023-03-17T08:33:53;11.40;99.90
6244;DHT22;3155;49.940;8.450;2023-03-17T08:36:25;11.40;99.90
6244;DHT22;3155;49.940;8.450;2023-03-17T08:38:52;11.40;99.90
6244;DHT22;3155;49.940;8.450;2023-03-17T08:41:21;11.50;99.90
6244;DHT22;3155;49.940;8.450;2023-03-17T08:43:49;11.80;99.90
6244;DHT22;3155;49.940;8.450;2023-03-17T08:48:46;12.40;99.90
6244;DHT22;3155;49.940;8.450;2023-03-17T08:51:14;12.50;99.90
6244;DHT22;3155;49.940;8.450;2023-03-17T08:53:45;13.10;99.90
6244;DHT22;3155;49.940;8.450;2023-03-17T08:56:13;13.80;99.90
6244;DHT22;3155;49.940;8.450;2023-03-17T08:58:40;14.40;99.90
6244;DHT22;3155;49.940;8.450;2023-03-17T09:01:10;14.80;99.90
6244;DHT22;3155;49.940;8.450;2023-03-17T09:03:40;15.10;99.90
6244;DHT22;3155;49.940;8.450;2023-03-17T09:06:09;15.40;99.90
6244;DHT22;3155;49.940;8.450;2023-03-17T09:08:42;15.50;99.90
6244;DHT22;3155;49.940;8.450;2023-03-17T09:11:27;15.30;99.90
6244;DHT22;3155;49.940;8.450;2023-03-17T09:13:54;15.20;99.90
6244;DHT22;3155;49.940;8.450;2023-03-17T09:16:29;14.50;99.90
6244;DHT22;3155;49.940;8.450;2023-03-17T09:18:59;14.50;99.90
6244;DHT22;3155;49.940;8.450;2023-03-17T09:21:26;14.50;99.90
6244;DHT22;3155;49.940;8.450;2023-03-17T09:23:53;14.40;99.90
6244;DHT22;3155;49.940;8.450;2023-03-17T09:26:23;14.40;99.90
6244;DHT22;3155;49.940;8.450;2023-03-17T09:28:51;14.40;99.90
6244;DHT22;3155;49.940;8.450;2023-03-17T09:31:18;14.00;99.90
6244;DHT22;3155;49.940;8.450;2023-03-17T09:33:45;13.80;99.90
6244;DHT22;3155;49.940;8.450;2023-03-17T09:36:12;13.10;99.90
6244;DHT22;3155;49.940;8.450;2023-03-17T09:38:39;13.60;99.90
6244;DHT22;3155;49.940;8.450;2023-03-17T09:41:42;13.60;99.90
6244;DHT22;3155;49.940;8.450;2023-03-17T09:49:58;13.80;99.90
6244;DHT22;3155;49.940;8.450;2023-03-17T09:52:31;13.80;99.90
6244;DHT22;3155;49.940;8.450;2023-03-17T09:55:02;14.10;99.90
6244;DHT22;3155;49.940;8.450;2023-03-17T09:57:34;14.20;99.90
6244;DHT22;3155;49.940;8.450;2023-03-17T10:00:09;14.50;99.90
6244;DHT22;3155;49.940;8.450;2023-03-17T10:02:37;14.80;99.90
6244;DHT22;3155;49.940;8.450;2023-03-17T10:05:25;14.70;99.90
6244;DHT22;3155;49.940;8.450;2023-03-17T10:10:44;14.70;99.90
6244;DHT22;3155;49.940;8.450;2023-03-17T10:26:41;15.30;99.90
6244;DHT22;3155;49.940;8.450;2023-03-17T10:29:20;14.70;99.90
6244;DHT22;3155;49.940;8.450;2023-03-17T10:31:51;14.80;99.90
6244;DHT22;3155;49.940;8.450;2023-03-17T10:34:29;15.10;99.90
6244;DHT22;3155;49.940;8.450;2023-03-17T10:39:45;15.30;99.90
6244;DHT22;3155;49.940;8.450;2023-03-17T10:42:32;15.80;99.90
6244;DHT22;3155;49.940;8.450;2023-03-17T10:45:23;15.90;99.90
6244;DHT22;3155;49.940;8.450;2023-03-17T10:47:57;16.10;99.90
6244;DHT22;3155;49.940;8.450;2023-03-17T10:50:29;16.10;99.90
6244;DHT22;3155;49.940;8.450;2023-03-17T10:53:06;16.30;99.90
6244;DHT22;3155;49.940;8.450;2023-03-17T11:00:57;16.50;99.90
6244;DHT22;3155;49.940;8.450;2023-03-17T11:03:31;17.30;99.90
6244;DHT22;3155;49.940;8.450;2023-03-17T11:06:17;17.50;99.90
6244;DHT22;3155;49.940;8.450;2023-03-17T11:08:52;18.30;99.90
6244;DHT22;3155;49.940;8.450;2023-03-17T11:11:26;18.60;99.90
6244;DHT22;3155;49.940;8.450;2023-03-17T11:14:04;18.90;99.90
6244;DHT22;3155;49.940;8.450;2023-03-17T11:16:34;19.10;99.90
6244;DHT22;3155;49.940;8.450;2023-03-17T11:19:02;19.40;99.90
6244;DHT22;3155;49.940;8.450;2023-03-17T11:25:09;19.00;99.90
6244;DHT22;3155;49.940;8.450;2023-03-17T11:33:31;18.70;99.90
6244;DHT22;3155;49.940;8.450;2023-03-17T11:45:14;18.90;99.90
6244;DHT22;3155;49.940;8.450;2023-03-17T11:55:55;19.20;99.90
6244;DHT22;3155;49.940;8.450;2023-03-17T11:58:40;19.60;99.90
6244;DHT22;3155;49.940;8.450;2023-03-17T12:01:12;19.80;99.90
6244;DHT22;3155;49.940;8.450;2023-03-17T12:06:37;19.70;99.90
6244;DHT22;3155;49.940;8.450;2023-03-17T12:11:39;18.20;99.90
6244;DHT22;3155;49.940;8.450;2023-03-17T12:14:24;18.00;99.90
6244;DHT22;3155;49.940;8.450;2023-03-17T12:20:06;18.10;99.90
6244;DHT22;3155;49.940;8.450;2023-03-17T12:23:09;17.90;99.90
6244;DHT22;3155;49.940;8.450;2023-03-17T12:25:53;17.70;99.90
6244;DHT22;3155;49.940;8.450;2023-03-17T12:28:39;17.50;99.90
6244;DHT22;3155;49.940;8.450;2023-03-17T12:31:35;17.60;99.90
6244;DHT22;3155;49.940;8.450;2023-03-17T12:36:51;16.90;99.90
6244;DHT22;3155;49.940;8.450;2023-03-17T12:39:23;17.20;99.90
6244;DHT22;3155;49.940;8.450;2023-03-17T12:53:02;17.10;99.90
6244;DHT22;3155;49.940;8.450;2023-03-17T12:55:37;17.40;99.90
6244;DHT22;3155;49.940;8.450;2023-03-17T12:58:34;17.30;99.90
6244;DHT22;3155;49.940;8.450;2023-03-17T13:06:56;17.40;99.90
6244;DHT22;3155;49.940;8.450;2023-03-17T13:12:55;17.20;99.90
6244;DHT22;3155;49.940;8.450;2023-03-17T13:26:20;17.20;99.90
6244;DHT22;3155;49.940;8.450;2023-03-17T13:28:49;17.30;99.90
6244;DHT22;3155;49.940;8.450;2023-03-17T13:31:32;17.30;99.90
6244;DHT22;3155;49.940;8.450;2023-03-17T13:34:17;17.40;99.90
6244;DHT22;3155;49.940;8.450;2023-03-17T13:39:28;17.30;99.90
6244;DHT22;3155;49.940;8.450;2023-03-17T13:42:14;17.40;99.90
6244;DHT22;3155;49.940;8.450;2023-03-17T13:47:44;17.20;99.90
6244;DHT22;3155;49.940;8.450;2023-03-17T13:50:21;17.10;99.90
6244;DHT22;3155;49.940;8.450;2023-03-17T13:52:55;17.20;99.90
6244;DHT22;3155;49.940;8.450;2023-03-17T13:57:53;17.40;99.90
6244;DHT22;3155;49.940;8.450;2023-03-17T14:00:25;17.40;99.90
6244;DHT22;3155;49.940;8.450;2023-03-17T14:03:21;17.40;99.90
6244;DHT22;3155;49.940;8.450;2023-03-17T14:05:53;17.40;99.90
6244;DHT22;3155;49.940;8.450;2023-03-17T14:08:36;17.60;99.90
6244;DHT22;3155;49.940;8.450;2023-03-17T14:17:18;17.70;99.90
6244;DHT22;3155;49.940;8.450;2023-03-17T14:20:21;17.70;99.90
6244;DHT22;3155;49.940;8.450;2023-03-17T14:22:54;17.70;99.90
6244;DHT22;3155;49.940;8.450;2023-03-17T14:25:24;17.70;99.90
6244;DHT22;3155;49.940;8.450;2023-03-17T14:27:53;17.80;99.90
6244;DHT22;3155;49.940;8.450;2023-03-17T14:30:30;17.60;99.90
6244;DHT22;3155;49.940;8.450;2023-03-17T14:33:21;17.40;99.90
6244;DHT22;3155;49.940;8.450;2023-03-17T14:35:50;17.20;99.90
6244;DHT22;3155;49.940;8.450;2023-03-17T14:38:26;17.10;99.90
6244;DHT22;3155;49.940;8.450;2023-03-17T14:43:41;16.70;99.90
6244;DHT22;3155;49.940;8.450;2023-03-17T14:49:24;16.40;99.90
6244;DHT22;3155;49.940;8.450;2023-03-17T14:51:51;16.40;99.90
6244;DHT22;3155;49.940;8.450;2023-03-17T14:54:30;16.40;99.90
6244;DHT22;3155;49.940;8.450;2023-03-17T14:57:05;16.40;99.90
6244;DHT22;3155;49.940;8.450;2023-03-17T14:59:40;16.50;99.90
6244;DHT22;3155;49.940;8.450;2023-03-17T15:07:49;16.30;99.90
6244;DHT22;3155;49.940;8.450;2023-03-17T15:10:40;16.10;99.90
6244;DHT22;3155;49.940;8.450;2023-03-17T15:13:10;16.10;99.90
6244;DHT22;3155;49.940;8.450;2023-03-17T15:15:40;16.00;99.90
6244;DHT22;3155;49.940;8.450;2023-03-17T15:18:12;15.90;99.90
6244;DHT22;3155;49.940;8.450;2023-03-17T15:23:17;15.90;99.90
6244;DHT22;3155;49.940;8.450;2023-03-17T15:25:55;16.00;99.90
6244;DHT22;3155;49.940;8.450;2023-03-17T15:28:27;16.10;99.90
6244;DHT22;3155;49.940;8.450;2023-03-17T15:31:09;16.10;99.90
6244;DHT22;3155;49.940;8.450;2023-03-17T15:33:39;16.10;99.90
6244;DHT22;3155;49.940;8.450;2023-03-17T15:36:12;16.10;99.90
6244;DHT22;3155;49.940;8.450;2023-03-17T15:38:56;16.10;99.90
6244;DHT22;3155;49.940;8.450;2023-03-17T15:41:25;16.10;99.90
6244;DHT22;3155;49.940;8.450;2023-03-17T15:43:53;16.00;99.90
6244;DHT22;3155;49.940;8.450;2023-03-17T15:46:25;16.00;99.90
6244;DHT22;3155;49.940;8.450;2023-03-17T15:48:53;16.00;99.90
6244;DHT22;3155;49.940;8.450;2023-03-17T15:51:20;15.90;99.90
6244;DHT22;3155;49.940;8.450;2023-03-17T15:53:47;15.80;99.90
6244;DHT22;3155;49.940;8.450;2023-03-17T15:56:17;15.60;99.90
6244;DHT22;3155;49.940;8.450;2023-03-17T15:58:49;15.50;99.90
6244;DHT22;3155;49.940;8.450;2023-03-17T16:01:18;15.50;99.90
6244;DHT22;3155;49.940;8.450;2023-03-17T16:03:45;15.40;99.90
6244;DHT22;3155;49.940;8.450;2023-03-17T16:06:19;15.30;99.90
6244;DHT22;3155;49.940;8.450;2023-03-17T16:08:48;15.20;99.90
6244;DHT22;3155;49.940;8.450;2023-03-17T16:11:22;15.10;99.90
6244;DHT22;3155;49.940;8.450;2023-03-17T16:13:55;15.00;99.90
6244;DHT22;3155;49.940;8.450;2023-03-17T16:16:42;14.90;99.90
6244;DHT22;3155;49.940;8.450;2023-03-17T16:19:17;14.80;99.90
6244;DHT22;3155;49.940;8.450;2023-03-17T16:21:46;14.60;99.90
6244;DHT22;3155;49.940;8.450;2023-03-17T16:24:17;14.50;99.90
6244;DHT22;3155;49.940;8.450;2023-03-17T16:26:45;14.50;99.90
6244;DHT22;3155;49.940;8.450;2023-03-17T16:29:18;14.30;99.90
6244;DHT22;3155;49.940;8.450;2023-03-17T16:31:47;14.10;99.90
6244;DHT22;3155;49.940;8.450;2023-03-17T16:34:20;14.00;99.90
6244;DHT22;3155;49.940;8.450;2023-03-17T16:36:48;13.90;99.90
6244;DHT22;3155;49.940;8.450;2023-03-17T16:39:21;13.70;99.90
6244;DHT22;3155;49.940;8.450;2023-03-17T16:41:50;13.60;99.90
6244;DHT22;3155;49.940;8.450;2023-03-17T16:44:19;13.50;99.90
6244;DHT22;3155;49.940;8.450;2023-03-17T16:46:47;13.40;99.90
6244;DHT22;3155;49.940;8.450;2023-03-17T16:49:17;13.30;99.90
6244;DHT22;3155;49.940;8.450;2023-03-17T16:51:44;13.20;99.90
6244;DHT22;3155;49.940;8.450;2023-03-17T16:54:14;13.10;99.90
6244;DHT22;3155;49.940;8.450;2023-03-17T16:56:41;13.00;99.90
6244;DHT22;3155;49.940;8.450;2023-03-17T16:59:19;12.80;99.90
6244;DHT22;3155;49.940;8.450;2023-03-17T17:01:46;12.70;99.90
6244;DHT22;3155;49.940;8.450;2023-03-17T17:04:13;12.60;99.90
6244;DHT22;3155;49.940;8.450;2023-03-17T17:06:39;12.60;99.90
6244;DHT22;3155;49.940;8.450;2023-03-17T17:09:06;12.50;99.90
6244;DHT22;3155;49.940;8.450;2023-03-17T17:11:38;12.40;99.90
6244;DHT22;3155;49.940;8.450;2023-03-17T17:14:04;12.20;99.90
6244;DHT22;3155;49.940;8.450;2023-03-17T17:16:34;12.10;99.90
6244;DHT22;3155;49.940;8.450;2023-03-17T17:19:03;12.00;99.90
6244;DHT22;3155;49.940;8.450;2023-03-17T17:21:29;11.90;99.90
6244;DHT22;3155;49.940;8.450;2023-03-17T17:23:57;11.90;99.90
6244;DHT22;3155;49.940;8.450;2023-03-17T17:26:29;11.80;99.90
6244;DHT22;3155;49.940;8.450;2023-03-17T17:28:56;11.70;99.90
6244;DHT22;3155;49.940;8.450;2023-03-17T17:31:22;11.60;99.90
6244;DHT22;3155;49.940;8.450;2023-03-17T17:33:49;11.70;99.90
6244;DHT22;3155;49.940;8.450;2023-03-17T17:36:16;11.60;99.90
6244;DHT22;3155;49.940;8.450;2023-03-17T17:38:43;11.60;99.90
6244;DHT22;3155;49.940;8.450;2023-03-17T17:41:11;11.40;99.90
6244;DHT22;3155;49.940;8.450;2023-03-17T17:43:38;11.30;99.90
6244;DHT22;3155;49.940;8.450;2023-03-17T17:46:17;11.20;99.90
6244;DHT22;3155;49.940;8.450;2023-03-17T17:48:44;11.10;99.90
6244;DHT22;3155;49.940;8.450;2023-03-17T17:51:11;11.10;99.90
6244;DHT22;3155;49.940;8.450;2023-03-17T17:53:38;11.00;99.90
6244;DHT22;3155;49.940;8.450;2023-03-17T17:56:06;10.80;99.90
6244;DHT22;3155;49.940;8.450;2023-03-17T17:58:33;10.70;99.90
6244;DHT22;3155;49.940;8.450;2023-03-17T18:00:59;10.60;99.90
6244;DHT22;3155;49.940;8.450;2023-03-17T18:03:28;10.50;99.90
6244;DHT22;3155;49.940;8.450;2023-03-17T18:05:58;10.50;99.90
6244;DHT22;3155;49.940;8.450;2023-03-17T18:08:25;10.50;99.90
6244;DHT22;3155;49.940;8.450;2023-03-17T18:10:52;10.50;99.90
6244;DHT22;3155;49.940;8.450;2023-03-17T18:13:19;10.50;99.90
6244;DHT22;3155;49.940;8.450;2023-03-17T18:15:45;10.40;99.90
6244;DHT22;3155;49.940;8.450;2023-03-17T18:18:12;10.30;99.90
6244;DHT22;3155;49.940;8.450;2023-03-17T18:20:39;10.20;99.90
6244;DHT22;3155;49.940;8.450;2023-03-17T18:23:06;10.20;99.90
6244;DHT22;3155;49.940;8.450;2023-03-17T18:25:33;10.20;99.90
6244;DHT22;3155;49.940;8.450;2023-03-17T18:28:04;10.10;99.90
6244;DHT22;3155;49.940;8.450;2023-03-17T18:30:31;10.10;99.90
6244;DHT22;3155;49.940;8.450;2023-03-17T18:33:11;10.00;99.90
6244;DHT22;3155;49.940;8.450;2023-03-17T18:35:39;9.90;99.90
6244;DHT22;3155;49.940;8.450;2023-03-17T18:38:06;9.80;99.90
6244;DHT22;3155;49.940;8.450;2023-03-17T18:40:34;9.80;99.90
6244;DHT22;3155;49.940;8.450;2023-03-17T18:43:01;9.80;99.90
6244;DHT22;3155;49.940;8.450;2023-03-17T18:45:28;9.90;99.90
6244;DHT22;3155;49.940;8.450;2023-03-17T18:47:55;9.90;99.90
6244;DHT22;3155;49.940;8.450;2023-03-17T18:50:22;9.80;99.90
6244;DHT22;3155;49.940;8.450;2023-03-17T18:52:48;9.80;99.90
6244;DHT22;3155;49.940;8.450;2023-03-17T18:55:15;9.90;99.90
6244;DHT22;3155;49.940;8.450;2023-03-17T18:57:42;9.80;99.90
6244;DHT22;3155;49.940;8.450;2023-03-17T19:00:12;9.80;99.90
6244;DHT22;3155;49.940;8.450;2023-03-17T19:02:39;9.90;99.90
6244;DHT22;3155;49.940;8.450;2023-03-17T19:05:07;10.00;99.90
6244;DHT22;3155;49.940;8.450;2023-03-17T19:07:34;10.10;99.90
6244;DHT22;3155;49.940;8.450;2023-03-17T19:10:01;10.10;99.90
6244;DHT22;3155;49.940;8.450;2023-03-17T19:12:27;10.20;99.90
6244;DHT22;3155;49.940;8.450;2023-03-17T19:14:57;10.20;99.90
6244;DHT22;3155;49.940;8.450;2023-03-17T19:17:27;10.20;99.90
6244;DHT22;3155;49.940;8.450;2023-03-17T19:19:57;10.20;99.90
6244;DHT22;3155;49.940;8.450;2023-03-17T19:22:24;10.10;99.90
6244;DHT22;3155;49.940;8.450;2023-03-17T19:24:53;10.10;99.90
6244;DHT22;3155;49.940;8.450;2023-03-17T19:27:22;10.00;99.90
6244;DHT22;3155;49.940;8.450;2023-03-17T19:29:49;10.00;99.90
6244;DHT22;3155;49.940;8.450;2023-03-17T19:32:16;10.00;99.90
6244;DHT22;3155;49.940;8.450;2023-03-17T19:34:43;10.10;99.90
6244;DHT22;3155;49.940;8.450;2023-03-17T19:37:16;10.10;99.90
6244;DHT22;3155;49.940;8.450;2023-03-17T19:39:42;10.10;99.90
6244;DHT22;3155;49.940;8.450;2023-03-17T19:42:12;10.00;99.90
6244;DHT22;3155;49.940;8.450;2023-03-17T19:44:39;10.00;99.90
6244;DHT22;3155;49.940;8.450;2023-03-17T19:47:06;10.00;99.90
6244;DHT22;3155;49.940;8.450;2023-03-17T19:49:35;9.90;99.90
6244;DHT22;3155;49.940;8.450;2023-03-17T19:52:06;9.90;99.90
6244;DHT22;3155;49.940;8.450;2023-03-17T19:54:34;9.80;99.90
6244;DHT22;3155;49.940;8.450;2023-03-17T19:57:03;9.70;99.90
6244;DHT22;3155;49.940;8.450;2023-03-17T19:59:30;9.70;99.90
6244;DHT22;3155;49.940;8.450;2023-03-17T20:01:57;9.60;99.90
6244;DHT22;3155;49.940;8.450;2023-03-17T20:04:24;9.50;99.90
6244;DHT22;3155;49.940;8.450;2023-03-17T20:06:51;9.50;99.90
6244;DHT22;3155;49.940;8.450;2023-03-17T20:09:26;9.50;99.90
6244;DHT22;3155;49.940;8.450;2023-03-17T20:11:53;9.50;99.90
6244;DHT22;3155;49.940;8.450;2023-03-17T20:14:24;9.40;99.90
6244;DHT22;3155;49.940;8.450;2023-03-17T20:16:51;9.40;99.90
6244;DHT22;3155;49.940;8.450;2023-03-17T20:19:21;9.40;99.90
6244;DHT22;3155;49.940;8.450;2023-03-17T20:21:50;9.40;99.90
6244;DHT22;3155;49.940;8.450;2023-03-17T20:24:17;9.40;99.90
6244;DHT22;3155;49.940;8.450;2023-03-17T20:26:44;9.40;99.90
6244;DHT22;3155;49.940;8.450;2023-03-17T20:29:11;9.30;99.90
6244;DHT22;3155;49.940;8.450;2023-03-17T20:31:41;9.30;99.90
6244;DHT22;3155;49.940;8.450;2023-03-17T20:34:08;9.20;99.90
6244;DHT22;3155;49.940;8.450;2023-03-17T20:36:35;9.20;99.90
6244;DHT22;3155;49.940;8.450;2023-03-17T20:39:03;9.20;99.90
6244;DHT22;3155;49.940;8.450;2023-03-17T20:41:31;9.20;99.90
6244;DHT22;3155;49.940;8.450;2023-03-17T20:44:00;9.20;99.90
6244;DHT22;3155;49.940;8.450;2023-03-17T20:46:27;9.20;99.90
6244;DHT22;3155;49.940;8.450;2023-03-17T20:48:53;9.10;99.90
6244;DHT22;3155;49.940;8.450;2023-03-17T20:51:33;9.10;99.90
6244;DHT22;3155;49.940;8.450;2023-03-17T20:54:00;9.10;99.90
6244;DHT22;3155;49.940;8.450;2023-03-17T20:56:28;9.00;99.90
6244;DHT22;3155;49.940;8.450;2023-03-17T20:58:59;9.00;99.90
6244;DHT22;3155;49.940;8.450;2023-03-17T21:01:33;9.00;99.90
6244;DHT22;3155;49.940;8.450;2023-03-17T21:04:09;9.00;99.90
6244;DHT22;3155;49.940;8.450;2023-03-17T21:06:37;9.00;99.90
6244;DHT22;3155;49.940;8.450;2023-03-17T21:09:05;9.10;99.90
6244;DHT22;3155;49.940;8.450;2023-03-17T21:11:32;9.00;99.90
6244;DHT22;3155;49.940;8.450;2023-03-17T21:13:59;9.00;99.90
6244;DHT22;3155;49.940;8.450;2023-03-17T21:16:28;9.00;99.90
6244;DHT22;3155;49.940;8.450;2023-03-17T21:18:55;9.10;99.90
6244;DHT22;3155;49.940;8.450;2023-03-17T21:21:23;9.10;99.90
6244;DHT22;3155;49.940;8.450;2023-03-17T21:23:50;9.10;99.90
6244;DHT22;3155;49.940;8.450;2023-03-17T21:26:17;9.00;99.90
6244;DHT22;3155;49.940;8.450;2023-03-17T21:28:45;8.90;99.90
6244;DHT22;3155;49.940;8.450;2023-03-17T21:31:12;8.90;99.90
6244;DHT22;3155;49.940;8.450;2023-03-17T21:33:43;8.80;99.90
6244;DHT22;3155;49.940;8.450;2023-03-17T21:36:10;8.70;99.90
6244;DHT22;3155;49.940;8.450;2023-03-17T21:38:37;8.70;99.90
6244;DHT22;3155;49.940;8.450;2023-03-17T21:41:20;8.70;99.90
6244;DHT22;3155;49.940;8.450;2023-03-17T21:43:48;8.70;99.90
6244;DHT22;3155;49.940;8.450;2023-03-17T21:46:16;8.70;99.90
6244;DHT22;3155;49.940;8.450;2023-03-17T21:48:42;8.80;99.90
6244;DHT22;3155;49.940;8.450;2023-03-17T21:51:18;8.80;99.90
6244;DHT22;3155;49.940;8.450;2023-03-17T21:53:46;8.90;99.90
6244;DHT22;3155;49.940;8.450;2023-03-17T21:56:13;8.90;99.90
6244;DHT22;3155;49.940;8.450;2023-03-17T21:58:40;8.90;99.90
6244;DHT22;3155;49.940;8.450;2023-03-17T22:01:09;8.90;99.90
6244;DHT22;3155;49.940;8.450;2023-03-17T22:03:36;8.90;99.90